Time;durP1;ratioP1;P1;durP2;ratioP2;P2;SDS_P1;SDS_P2;PMS_P1;PMS_P2;Temp;Humidity;BMP_temperature;BMP_pressure;BME280_temperature;BME280_humidity;BME280_pressure;Samples;Min_cycle;Max_cycle;Signal;HPM_P1;HPM_P2
2022/01/18 00:00:43;;;;;;;10.15;5.97;;;;;;;2.67;84.19;97331.97;4992578;28;20046;-47
2022/01/18 00:03:10;;;;;;;11.30;6.07;;;;;;;2.63;84.09;97334.31;4973597;28;20054;-46
2022/01/18 00:05:38;;;;;;;12.73;6.95;;;;;;;2.50;84.86;97324.81;4991071;28;20042;-50
2022/01/18 00:08:05;;;;;;;11.55;6.45;;;;;;;2.56;84.75;97339.03;4990013;28;20491;-47
2022/01/18 00:10:34;;;;;;;9.65;5.65;;;;;;;2.25;86.85;97329.78;4976371;28;20105;-45
2022/01/18 00:15:42;;;;;;;10.05;6.00;;;;;;;2.48;86.23;97342.94;4992394;28;20137;-54
2022/01/18 00:18:12;;;;;;;11.82;6.53;;;;;;;2.32;86.73;97352.59;4991247;28;20539;-50
2022/01/18 00:23:20;;;;;;;10.48;6.43;;;;;;;2.39;86.79;97356.94;4972728;28;20137;-47
2022/01/18 00:25:52;;;;;;;10.23;6.13;;;;;;;2.23;89.07;97361.25;4971552;28;20050;-46
2022/01/18 00:28:20;;;;;;;12.57;6.85;;;;;;;2.46;86.83;97360.25;4972283;28;20053;-48
2022/01/18 00:35:44;;;;;;;11.88;7.05;;;;;;;2.48;86.90;97348.28;4972855;28;20053;-46
2022/01/18 00:38:29;;;;;;;13.52;7.28;;;;;;;2.48;87.67;97356.28;4971969;28;20134;-53
2022/01/18 00:40:58;;;;;;;11.90;6.65;;;;;;;2.23;90.29;97371.94;4972437;28;20129;-48
2022/01/18 00:43:25;;;;;;;11.80;6.53;;;;;;;2.50;88.72;97372.91;4990109;28;20057;-48
2022/01/18 00:45:52;;;;;;;11.85;6.85;;;;;;;2.18;90.59;97369.16;4992055;28;20057;-48
2022/01/18 00:48:19;;;;;;;10.63;6.70;;;;;;;2.32;89.63;97373.94;4991477;28;20046;-49
2022/01/18 00:50:46;;;;;;;13.02;7.50;;;;;;;2.25;89.88;97375.19;4986179;28;20126;-48
2022/01/18 00:53:16;;;;;;;11.73;7.10;;;;;;;2.21;90.62;97376.69;4978260;28;20053;-47
2022/01/18 00:55:59;;;;;;;12.05;6.65;;;;;;;1.97;93.05;97384.06;4972613;28;20046;-50
2022/01/18 00:58:26;;;;;;;13.60;7.13;;;;;;;2.23;90.69;97378.06;4971949;28;20078;-51
2022/01/18 01:00:53;;;;;;;14.35;8.02;;;;;;;1.79;93.77;97399.25;4978916;28;20045;-49
2022/01/18 01:03:20;;;;;;;12.88;7.70;;;;;;;2.03;92.70;97399.91;4972493;28;20043;-47
2022/01/18 01:05:59;;;;;;;12.23;7.72;;;;;;;2.03;93.33;97394.56;4972642;28;20055;-49
2022/01/18 01:08:26;;;;;;;12.73;7.53;;;;;;;2.32;90.79;97392.66;4971942;28;20050;-48
2022/01/18 01:10:53;;;;;;;15.27;8.07;;;;;;;2.06;92.91;97387.94;4977227;28;20049;-51
2022/01/18 01:13:21;;;;;;;13.20;8.02;;;;;;;2.01;93.50;97396.66;4991573;28;20043;-49
2022/01/18 01:16:47;;;;;;;13.77;8.50;;;;;;;2.32;90.61;97399.84;4991885;28;20046;-48
2022/01/18 01:34:44;;;;;;;14.20;8.43;;;;;;;2.09;93.84;97438.19;4978140;28;20443;-48
2022/01/18 01:42:53;;;;;;;14.00;8.20;;;;;;;2.12;94.22;97439.59;4975260;28;20072;-50
2022/01/18 01:45:16;;;;;;;14.43;8.52;;;;;;;2.21;92.02;97435.44;4975450;28;20047;-50
2022/01/18 01:47:46;;;;;;;14.18;7.90;;;;;;;2.20;93.13;97439.19;4975053;28;20081;-49
2022/01/18 01:50:18;;;;;;;15.77;8.75;;;;;;;2.33;92.25;97441.53;4985349;28;20133;-46
2022/01/18 01:52:46;;;;;;;14.38;8.27;;;;;;;2.31;91.62;97425.75;4984876;28;20661;-50
2022/01/18 01:55:15;;;;;;;13.88;8.07;;;;;;;1.87;94.79;97428.19;4975211;28;20069;-49
2022/01/18 01:57:42;;;;;;;16.40;8.63;;;;;;;2.03;94.08;97415.94;4974904;28;20401;-48
2022/01/18 02:00:13;;;;;;;12.70;7.63;;;;;;;1.97;94.30;97414.22;4981437;28;20129;-47
2022/01/18 02:02:40;;;;;;;15.98;9.68;;;;;;;2.24;91.80;97408.25;4986394;28;20112;-48
2022/01/18 02:05:09;;;;;;;14.13;8.68;;;;;;;2.35;91.95;97407.38;4994566;28;20048;-47
2022/01/18 02:07:36;;;;;;;14.77;9.43;;;;;;;2.53;89.92;97403.63;4994108;28;20050;-48
2022/01/18 02:10:07;;;;;;;14.88;9.23;;;;;;;2.03;94.01;97405.25;4991337;28;20052;-50
2022/01/18 02:12:34;;;;;;;13.77;8.57;;;;;;;2.31;92.27;97404.41;4994391;28;20106;-50
2022/01/18 02:15:11;;;;;;;12.75;8.18;;;;;;;2.23;92.32;97399.44;4994380;28;20133;-48
2022/01/18 02:23:21;;;;;;;14.52;8.57;;;;;;;2.28;92.07;97406.75;4979475;28;20473;-49
2022/01/18 02:25:49;;;;;;;15.80;8.57;;;;;;;2.40;92.04;97404.78;4974647;28;20137;-50
2022/01/18 02:28:18;;;;;;;14.40;8.70;;;;;;;2.10;95.44;97389.09;4973901;28;20047;-53
2022/01/18 02:30:46;;;;;;;15.73;9.93;;;;;;;2.24;92.70;97395.75;4976328;28;20039;-49
2022/01/18 02:33:14;;;;;;;14.77;8.75;;;;;;;1.83;96.04;97394.25;4994030;28;20042;-49
2022/01/18 02:35:41;;;;;;;15.93;8.38;;;;;;;1.76;96.60;97385.56;4993933;28;20042;-50
2022/01/18 02:38:08;;;;;;;15.10;9.63;;;;;;;2.08;95.10;97381.31;4993376;28;20105;-48
2022/01/18 02:40:35;;;;;;;15.23;9.23;;;;;;;2.02;95.29;97384.97;4977931;28;20047;-50
2022/01/18 02:45:53;;;;;;;17.80;9.60;;;;;;;2.45;92.27;97396.06;4989445;28;20516;-53
2022/01/18 02:48:21;;;;;;;17.83;9.63;;;;;;;1.85;96.04;97387.63;4976240;28;20390;-43
2022/01/18 02:50:48;;;;;;;15.20;8.43;;;;;;;1.89;97.21;97387.94;4989592;28;20072;-44
2022/01/18 02:53:18;;;;;;;14.27;9.13;;;;;;;2.20;94.76;97391.91;4974242;28;20039;-49
2022/01/18 02:55:56;;;;;;;16.10;10.35;;;;;;;1.84;97.47;97402.00;4974841;28;20047;-46
2022/01/18 02:58:29;;;;;;;16.55;8.82;;;;;;;2.23;94.54;97403.97;4973639;28;20047;-52
2022/01/18 03:03:43;;;;;;;16.15;9.60;;;;;;;2.33;92.80;97409.47;4973831;28;20066;-46
2022/01/18 03:06:10;;;;;;;15.65;9.25;;;;;;;2.55;91.99;97413.03;4973998;28;20050;-51
2022/01/18 03:08:36;;;;;;;15.63;8.93;;;;;;;1.80;95.98;97379.50;4973283;28;20053;-45
2022/01/18 03:11:03;;;;;;;16.98;9.80;;;;;;;2.02;97.30;97406.31;4985268;28;20050;-47
2022/01/18 03:13:30;;;;;;;16.15;9.65;;;;;;;1.88;96.91;97413.00;4993337;28;20041;-47
2022/01/18 03:15:57;;;;;;;15.60;9.35;;;;;;;1.99;96.81;97425.47;4993232;28;20074;-45
2022/01/18 03:18:24;;;;;;;17.27;10.13;;;;;;;1.92;96.27;97418.66;4986068;28;20094;-46
2022/01/18 03:20:51;;;;;;;17.42;10.32;;;;;;;2.02;97.17;97417.00;4979481;28;20066;-46
2022/01/18 03:23:21;;;;;;;17.95;9.77;;;;;;;2.28;95.13;97423.56;4987619;28;20419;-50
2022/01/18 03:25:56;;;;;;;16.17;10.00;;;;;;;2.51;92.53;97414.59;4973647;28;20097;-45
2022/01/18 03:28:25;;;;;;;16.45;10.32;;;;;;;2.52;91.90;97412.72;4973082;28;20485;-46
2022/01/18 03:30:54;;;;;;;17.38;10.70;;;;;;;2.21;94.33;97414.91;4975609;28;20073;-46
2022/01/18 03:33:24;;;;;;;18.42;11.18;;;;;;;2.26;93.62;97414.19;4973452;28;20073;-48
2022/01/18 03:35:53;;;;;;;17.77;10.45;;;;;;;2.02;95.58;97424.19;4973815;28;20420;-46
2022/01/18 03:38:22;;;;;;;17.55;10.77;;;;;;;2.33;92.76;97422.84;4972789;28;20053;-44
2022/01/18 03:40:49;;;;;;;19.92;10.48;;;;;;;2.26;93.97;97431.00;4973027;28;20138;-50
2022/01/18 03:43:17;;;;;;;16.77;10.75;;;;;;;2.46;92.20;97419.84;4971861;28;20133;-46
2022/01/18 03:45:45;;;;;;;17.60;10.63;;;;;;;2.29;93.25;97419.03;4991273;28;20092;-46
2022/01/18 03:48:31;;;;;;;18.92;10.98;;;;;;;2.51;91.88;97427.13;4991904;28;20085;-53
2022/01/18 03:50:59;;;;;;;17.00;10.32;;;;;;;2.53;91.40;97417.00;4976821;28;20134;-44
2022/01/18 03:53:26;;;;;;;17.27;9.82;;;;;;;2.16;93.63;97427.38;4973370;28;20531;-47
2022/01/18 03:55:54;;;;;;;17.73;10.98;;;;;;;2.23;93.74;97425.34;4973610;28;20070;-50
2022/01/18 03:58:21;;;;;;;19.02;11.57;;;;;;;2.28;94.77;97422.75;4972612;28;20133;-49
2022/01/18 04:00:49;;;;;;;18.10;10.18;;;;;;;2.39;93.53;97435.22;4988161;28;20415;-53
2022/01/18 04:03:17;;;;;;;15.85;9.68;;;;;;;2.41;92.51;97432.31;4971743;28;20489;-51
2022/01/18 04:05:46;;;;;;;18.48;11.48;;;;;;;2.39;92.65;97435.22;4972972;28;20133;-52
2022/01/18 04:08:14;;;;;;;18.65;10.82;;;;;;;1.93;96.12;97421.09;4972382;28;20066;-49
2022/01/18 04:10:41;;;;;;;17.55;10.15;;;;;;;2.19;94.04;97429.56;4985474;28;20137;-53
2022/01/18 04:13:08;;;;;;;18.83;11.73;;;;;;;1.82;96.88;97424.63;4991889;28;20052;-50
2022/01/18 04:15:35;;;;;;;19.40;10.70;;;;;;;2.18;94.25;97427.91;4992339;28;20046;-49
2022/01/18 04:18:29;;;;;;;16.42;10.18;;;;;;;2.03;95.62;97428.47;4990760;28;20063;-50
2022/01/18 04:29:09;;;;;;;18.85;10.52;;;;;;;2.46;92.00;97443.06;4991533;28;20539;-51
2022/01/18 04:31:37;;;;;;;18.52;10.65;;;;;;;2.51;91.78;97435.94;4986802;28;20445;-51
2022/01/18 04:34:04;;;;;;;17.17;11.10;;;;;;;2.48;91.55;97444.44;4981335;28;20057;-50
2022/01/18 04:36:30;;;;;;;18.08;11.05;;;;;;;2.50;91.43;97452.22;4992123;28;20632;-53
2022/01/18 04:38:58;;;;;;;19.77;10.13;;;;;;;1.98;94.83;97458.56;4991756;28;20481;-52
2022/01/18 04:41:30;;;;;;;17.00;10.20;;;;;;;2.10;94.64;97448.63;4975570;28;20066;-52
2022/01/18 04:49:15;;;;;;;17.08;10.05;;;;;;;2.16;94.37;97462.06;4972029;28;20051;-47
2022/01/18 04:51:44;;;;;;;19.85;11.23;;;;;;;2.39;92.74;97466.47;4971243;28;20411;-49
2022/01/18 04:54:12;;;;;;;19.48;9.82;;;;;;;2.14;93.18;97470.31;4973344;28;20394;-53
2022/01/18 04:59:09;;;;;;;20.38;10.80;;;;;;;2.23;92.95;97468.88;4975400;28;20085;-53
2022/01/18 05:01:40;;;;;;;19.23;10.60;;;;;;;2.22;91.99;97463.78;4978430;28;20114;-50
2022/01/18 05:04:07;;;;;;;21.02;11.45;;;;;;;1.98;93.36;97455.91;4995524;28;20046;-50
2022/01/18 05:06:35;;;;;;;18.10;10.40;;;;;;;1.87;94.29;97451.41;4994825;28;20050;-51
2022/01/18 05:09:08;;;;;;;20.02;10.77;;;;;;;2.26;91.49;97462.25;4979550;28;20053;-52
2022/01/18 05:11:42;;;;;;;21.73;10.23;;;;;;;2.21;91.84;97462.16;4976093;28;20079;-52
2022/01/18 05:14:25;;;;;;;20.98;10.93;;;;;;;2.34;90.57;97459.19;4976157;28;20081;-52
2022/01/18 05:17:00;;;;;;;20.90;11.07;;;;;;;1.54;95.31;97460.94;4975629;28;20047;-51
2022/01/18 05:20:13;;;;;;;18.92;10.88;;;;;;;1.73;95.90;97460.78;4975277;28;20288;-51
2022/01/18 05:25:00;;;;;;;20.08;10.73;;;;;;;2.07;92.11;97456.31;4995281;28;20046;-51
2022/01/18 05:27:27;;;;;;;20.77;11.90;;;;;;;2.13;91.63;97462.56;4994883;28;20068;-51
2022/01/18 05:29:54;;;;;;;21.55;11.38;;;;;;;2.12;91.46;97460.94;4993420;28;20051;-54
2022/01/18 05:32:21;;;;;;;21.55;11.40;;;;;;;1.55;95.34;97462.53;4979639;28;20050;-49
2022/01/18 05:34:48;;;;;;;19.50;10.40;;;;;;;2.14;91.93;97458.81;4994850;28;20038;-55
2022/01/18 05:37:16;;;;;;;18.75;10.80;;;;;;;2.42;90.06;97460.66;4994889;28;20042;-53
2022/01/18 05:39:44;;;;;;;20.90;11.48;;;;;;;2.46;89.45;97462.56;4987895;28;20134;-49
2022/01/18 05:42:11;;;;;;;24.38;11.45;;;;;;;2.53;88.93;97463.22;4975403;28;20073;-50
2022/01/18 05:44:38;;;;;;;21.85;12.00;;;;;;;2.51;89.19;97470.69;4990801;28;20069;-47
2022/01/18 05:47:05;;;;;;;20.13;10.45;;;;;;;2.48;88.51;97471.16;4994787;28;20183;-48
2022/01/18 05:49:32;;;;;;;20.67;11.73;;;;;;;2.47;88.52;97464.22;4992602;28;20051;-52
2022/01/18 05:51:59;;;;;;;22.40;10.57;;;;;;;2.30;89.46;97468.72;4991152;28;20066;-49
2022/01/18 05:54:26;;;;;;;20.00;11.75;;;;;;;2.39;88.24;97472.63;4975355;28;20126;-52
2022/01/18 05:56:53;;;;;;;18.73;11.40;;;;;;;2.25;89.72;97472.13;4980139;28;20073;-46
2022/01/18 05:59:23;;;;;;;20.67;11.02;;;;;;;1.21;95.38;97468.78;4994100;28;20050;-48
2022/01/18 06:01:58;;;;;;;21.65;11.23;;;;;;;1.50;94.33;97470.47;4983702;28;20138;-48
2022/01/18 06:07:10;;;;;;;21.42;10.23;;;;;;;1.66;93.31;97473.41;4994476;28;20064;-47
2022/01/18 06:09:37;;;;;;;19.98;11.15;;;;;;;1.70;93.17;97474.59;4991037;28;20138;-48
2022/01/18 06:12:04;;;;;;;21.45;11.27;;;;;;;2.00;90.94;97475.16;4978243;28;20061;-51
2022/01/18 06:14:33;;;;;;;20.75;11.35;;;;;;;2.16;89.92;97478.91;4994469;28;20039;-47
2022/01/18 06:17:00;;;;;;;21.92;11.00;;;;;;;1.70;91.26;97485.25;4994191;28;20050;-49
2022/01/18 06:19:27;;;;;;;19.10;10.35;;;;;;;1.17;96.58;97490.59;4981944;28;20043;-52
2022/01/18 06:21:54;;;;;;;18.60;10.88;;;;;;;1.45;95.67;97488.22;4991373;28;20065;-54
2022/01/18 06:24:21;;;;;;;20.20;11.13;;;;;;;1.71;94.71;97494.88;4974673;28;20054;-51
2022/01/18 06:27:05;;;;;;;22.27;11.30;;;;;;;1.63;92.73;97493.41;4990625;28;20478;-52
2022/01/18 06:29:32;;;;;;;24.63;12.25;;;;;;;2.12;91.56;97501.00;4992169;28;20046;-51
2022/01/18 06:31:59;;;;;;;21.23;11.88;;;;;;;1.54;93.93;97495.63;4978329;28;20073;-49
2022/01/18 06:34:26;;;;;;;21.40;11.77;;;;;;;2.12;91.38;97504.47;4974779;28;20039;-50
2022/01/18 06:36:53;;;;;;;24.58;12.63;;;;;;;1.72;94.22;97499.16;4984614;28;20133;-46
2022/01/18 06:39:20;;;;;;;21.45;12.30;;;;;;;2.12;91.78;97520.50;4993168;28;20081;-49
2022/01/18 06:41:47;;;;;;;22.23;11.95;;;;;;;1.86;92.10;97524.53;4978904;28;20051;-46
2022/01/18 06:44:14;;;;;;;27.92;12.90;;;;;;;1.83;94.12;97531.16;4973404;28;20051;-46
2022/01/18 06:46:41;;;;;;;22.83;13.13;;;;;;;1.67;95.01;97531.88;4980143;28;20062;-48
2022/01/18 06:49:08;;;;;;;22.13;12.70;;;;;;;1.50;95.08;97534.47;4991988;28;20138;-49
2022/01/18 06:51:36;;;;;;;21.58;12.60;;;;;;;1.79;93.71;97535.34;4992763;28;20161;-51
2022/01/18 06:54:03;;;;;;;20.05;12.00;;;;;;;2.08;91.95;97538.84;4972953;28;20583;-49
2022/01/18 06:56:30;;;;;;;23.33;11.48;;;;;;;1.29;96.80;97543.06;4974206;28;20445;-47
2022/01/18 06:58:59;;;;;;;20.55;11.20;;;;;;;1.20;98.35;97555.13;4983441;28;20069;-48
2022/01/18 07:01:26;;;;;;;20.10;10.98;;;;;;;1.42;97.62;97550.81;4989673;28;20121;-50
2022/01/18 07:03:53;;;;;;;21.75;12.07;;;;;;;2.02;94.66;97565.69;4988654;28;20042;-47
2022/01/18 07:06:21;;;;;;;21.42;12.50;;;;;;;2.06;94.23;97561.50;4992073;28;20050;-49
2022/01/18 07:08:47;;;;;;;22.25;13.18;;;;;;;1.46;96.75;97567.16;4992755;28;20543;-48
2022/01/18 07:11:16;;;;;;;22.23;11.95;;;;;;;2.15;92.25;97567.28;4983086;28;20436;-49
2022/01/18 07:13:43;;;;;;;26.10;12.75;;;;;;;1.48;95.31;97557.09;4978780;28;20038;-48
2022/01/18 07:16:10;;;;;;;22.73;12.10;;;;;;;2.02;92.94;97563.81;4992998;28;20133;-51
2022/01/18 07:18:37;;;;;;;20.20;11.07;;;;;;;1.54;95.88;97564.97;4987996;28;20548;-50
2022/01/18 07:21:04;;;;;;;19.88;11.65;;;;;;;2.00;94.16;97576.59;4973542;28;20070;-47
2022/01/18 07:23:33;;;;;;;21.52;12.40;;;;;;;2.49;90.56;97574.31;4973991;28;20460;-50
2022/01/18 07:26:04;;;;;;;27.92;13.82;;;;;;;2.58;90.13;97583.56;4973722;28;20078;-49
2022/01/18 07:28:31;;;;;;;23.92;13.18;;;;;;;1.78;93.51;97572.94;4972743;28;20071;-51
2022/01/18 07:30:58;;;;;;;21.90;11.32;;;;;;;1.44;96.57;97577.28;4973249;28;20038;-51
2022/01/18 07:33:25;;;;;;;20.50;11.70;;;;;;;1.30;97.57;97582.84;4973434;28;20130;-50
2022/01/18 07:35:51;;;;;;;21.52;12.23;;;;;;;1.05;98.82;97585.72;4988008;28;20039;-47
2022/01/18 07:38:18;;;;;;;21.27;12.15;;;;;;;1.75;96.20;97576.88;4980317;28;20423;-53
2022/01/18 07:40:47;;;;;;;25.00;13.15;;;;;;;2.45;90.45;97589.19;4992423;28;20133;-48
2022/01/18 07:43:17;;;;;;;22.42;12.35;;;;;;;1.99;91.81;97590.19;4986087;28;20041;-49
2022/01/18 07:45:45;;;;;;;22.35;12.57;;;;;;;2.56;89.88;97601.69;4984822;28;20039;-49
2022/01/18 07:48:12;;;;;;;22.85;13.40;;;;;;;2.29;90.84;97601.44;4986573;28;20164;-47
2022/01/18 07:50:41;;;;;;;22.33;12.85;;;;;;;2.57;90.40;97608.66;4986008;28;20070;-46
2022/01/18 07:53:08;;;;;;;21.88;12.70;;;;;;;2.87;87.92;97614.78;4988220;28;20045;-48
2022/01/18 07:55:35;;;;;;;23.48;12.73;;;;;;;2.85;87.54;97614.22;4992554;28;20046;-47
2022/01/18 07:58:02;;;;;;;22.95;12.35;;;;;;;2.88;87.71;97614.53;4992323;28;20448;-46
2022/01/18 08:00:29;;;;;;;23.60;12.93;;;;;;;2.82;88.51;97615.50;4986647;28;20050;-47
2022/01/18 08:02:56;;;;;;;27.70;13.02;;;;;;;3.05;87.79;97614.53;4988117;28;20054;-47
2022/01/18 08:05:24;;;;;;;22.80;12.82;;;;;;;3.12;87.56;97617.91;4991573;28;20053;-47
2022/01/18 08:07:52;;;;;;;24.45;14.40;;;;;;;3.10;87.45;97621.84;4992961;28;20046;-47
2022/01/18 08:10:19;;;;;;;24.40;12.60;;;;;;;2.95;88.31;97614.38;5009363;28;20092;-48
2022/01/18 08:12:46;;;;;;;24.05;14.18;;;;;;;3.02;87.04;97615.88;4990538;28;20092;-51
2022/01/18 08:15:18;;;;;;;26.08;13.10;;;;;;;3.17;86.70;97617.16;4991642;28;20066;-47
2022/01/18 08:17:52;;;;;;;23.55;11.77;;;;;;;2.64;89.70;97610.38;4992743;28;20054;-48
2022/01/18 08:20:21;;;;;;;21.90;12.27;;;;;;;3.07;88.13;97611.63;4992969;28;20070;-50
2022/01/18 08:22:48;;;;;;;24.73;13.23;;;;;;;3.18;86.83;97608.06;4980842;28;20412;-50
2022/01/18 08:25:16;;;;;;;20.73;11.23;;;;;;;2.22;91.15;97618.66;4988268;28;20043;-50
2022/01/18 08:27:45;;;;;;;24.50;12.85;;;;;;;1.86;93.53;97616.09;4992446;28;20077;-49
2022/01/18 08:30:17;;;;;;;20.85;12.40;;;;;;;2.37;92.28;97600.25;4994428;28;20057;-49
2022/01/18 08:32:45;;;;;;;20.02;11.50;;;;;;;2.97;88.33;97609.59;4987431;28;20038;-47
2022/01/18 08:35:12;;;;;;;22.45;12.07;;;;;;;3.01;87.68;97608.06;4997242;28;20038;-50
2022/01/18 08:37:39;;;;;;;21.52;12.38;;;;;;;3.04;87.60;97618.28;4996089;28;20054;-50
2022/01/18 08:40:06;;;;;;;20.60;11.82;;;;;;;3.12;86.81;97609.88;4993178;28;20479;-49
2022/01/18 08:42:33;;;;;;;20.15;11.18;;;;;;;3.02;87.14;97609.69;4991732;28;20046;-46
2022/01/18 08:45:03;;;;;;;21.45;11.60;;;;;;;3.12;86.73;97604.53;4995795;28;20047;-54
2022/01/18 08:47:30;;;;;;;23.42;12.77;;;;;;;3.38;85.86;97613.75;4995639;28;20165;-54
2022/01/18 08:49:57;;;;;;;23.13;12.82;;;;;;;2.83;88.14;97603.78;4991831;28;20411;-48
2022/01/18 08:52:25;;;;;;;20.98;11.55;;;;;;;2.60;90.40;97610.06;4976798;28;20050;-50
2022/01/18 08:54:52;;;;;;;20.42;11.30;;;;;;;2.11;92.03;97612.28;4992933;28;20788;-49
2022/01/18 08:57:19;;;;;;;22.65;10.50;;;;;;;1.94;92.86;97622.91;4989346;28;20381;-49
2022/01/18 08:59:47;;;;;;;20.15;9.88;;;;;;;2.20;92.80;97626.91;4995653;28;20053;-52
2022/01/18 09:02:14;;;;;;;18.70;8.95;;;;;;;2.68;90.04;97616.84;4985054;28;20058;-46
2022/01/18 09:04:41;;;;;;;17.42;8.10;;;;;;;2.36;89.48;97630.69;4972811;28;20117;-48
2022/01/18 09:07:10;;;;;;;19.52;7.38;;;;;;;2.04;91.06;97631.13;4995579;28;20042;-47
2022/01/18 09:09:40;;;;;;;15.13;7.28;;;;;;;1.99;91.08;97631.03;4990029;28;20053;-48
2022/01/18 09:12:10;;;;;;;15.93;6.75;;;;;;;2.06;90.56;97634.38;4987033;28;20062;-51
2022/01/18 09:14:38;;;;;;;13.40;6.53;;;;;;;2.13;91.35;97630.78;4995179;28;20038;-49
2022/01/18 09:17:06;;;;;;;13.60;6.82;;;;;;;2.11;90.03;97631.00;4996218;28;20097;-48
2022/01/18 09:19:34;;;;;;;12.93;6.60;;;;;;;1.94;90.21;97630.91;4977172;28;20043;-44
2022/01/18 09:22:03;;;;;;;14.35;7.72;;;;;;;2.41;89.59;97638.81;4976377;28;20073;-50
2022/01/18 09:24:31;;;;;;;15.93;7.53;;;;;;;2.43;89.18;97639.38;4977366;28;20046;-47
2022/01/18 09:27:00;;;;;;;16.25;8.82;;;;;;;2.09;90.88;97647.25;4995692;28;20130;-49
2022/01/18 09:29:28;;;;;;;16.00;7.78;;;;;;;1.92;92.40;97646.38;4994522;28;20141;-49
2022/01/18 09:31:55;;;;;;;16.15;8.07;;;;;;;2.04;91.39;97649.81;4991046;28;20041;-53
2022/01/18 09:34:23;;;;;;;16.48;7.45;;;;;;;1.79;93.17;97644.75;4984079;28;20038;-54
2022/01/18 09:36:50;;;;;;;17.85;7.43;;;;;;;1.90;93.28;97656.47;4995668;28;20043;-50
2022/01/18 09:39:17;;;;;;;17.58;8.05;;;;;;;1.92;93.61;97649.03;4985566;28;20070;-51
2022/01/18 09:41:50;;;;;;;25.75;9.65;;;;;;;2.65;91.58;97646.72;4986289;28;20078;-54
2022/01/18 09:44:18;;;;;;;18.70;9.13;;;;;;;2.19;92.24;97651.19;4995375;28;20042;-52
2022/01/18 09:46:49;;;;;;;20.45;9.18;;;;;;;1.93;94.48;97653.31;4995737;28;20097;-54
2022/01/18 09:49:17;;;;;;;16.35;8.35;;;;;;;1.83;95.26;97651.25;4996511;28;20074;-53
2022/01/18 09:51:45;;;;;;;16.83;9.35;;;;;;;1.77;95.67;97649.50;4994877;28;20045;-52
2022/01/18 09:54:12;;;;;;;20.25;9.60;;;;;;;2.17;95.60;97655.94;4991909;28;20649;-52
2022/01/18 09:56:39;;;;;;;13.43;6.88;;;;;;;1.90;93.54;97661.00;4994599;28;20057;-46
2022/01/18 09:59:08;;;;;;;15.27;6.78;;;;;;;1.75;97.24;97658.78;4993684;28;20685;-46
2022/01/18 10:01:36;;;;;;;16.63;7.10;;;;;;;1.73;97.29;97652.88;4989085;28;20046;-50
2022/01/18 10:04:21;;;;;;;18.80;7.82;;;;;;;2.06;97.29;97650.41;4994699;28;20065;-49
2022/01/18 10:06:54;;;;;;;14.23;7.50;;;;;;;2.58;95.18;97653.03;4994230;28;20381;-47
2022/01/18 10:09:21;;;;;;;17.30;7.70;;;;;;;2.31;95.05;97639.44;4993509;28;20050;-49
2022/01/18 10:12:10;;;;;;;11.48;6.13;;;;;;;2.55;93.55;97644.69;4975278;28;20050;-47
2022/01/18 10:14:50;;;;;;;11.23;5.20;;;;;;;3.15;90.32;97640.66;4980355;28;20046;-52
2022/01/18 10:17:30;;;;;;;10.00;4.35;;;;;;;3.54;88.99;97640.72;4993668;28;20137;-46
2022/01/18 10:20:13;;;;;;;13.02;5.22;;;;;;;3.59;90.05;97638.13;4991113;28;20048;-48
2022/01/18 10:22:48;;;;;;;10.65;4.07;;;;;;;2.88;91.38;97637.78;4991536;28;20050;-47
2022/01/18 10:25:21;;;;;;;11.82;3.83;;;;;;;2.60;90.10;97631.44;4982608;28;20526;-53
2022/01/18 10:27:52;;;;;;;8.43;3.67;;;;;;;2.97;89.12;97636.34;4985001;28;20077;-49
2022/01/18 10:30:45;;;;;;;11.95;4.82;;;;;;;3.06;89.96;97634.91;4987262;28;20050;-47
2022/01/18 10:33:26;;;;;;;11.45;4.43;;;;;;;3.33;88.36;97643.09;4990516;28;20054;-55
2022/01/18 10:36:11;;;;;;;14.45;4.93;;;;;;;3.16;87.44;97620.88;4988751;28;20039;-51
2022/01/18 10:38:42;;;;;;;8.38;3.80;;;;;;;3.91;85.23;97620.38;4969811;28;20385;-50
2022/01/18 10:41:30;;;;;;;12.77;3.83;;;;;;;3.75;83.02;97615.88;4982121;28;20057;-49
2022/01/18 10:44:13;;;;;;;13.38;4.78;;;;;;;4.31;83.56;97605.84;4985803;28;20046;-48
2022/01/18 10:46:48;;;;;;;8.43;3.55;;;;;;;4.42;83.00;97591.53;4986335;28;20046;-49
2022/01/18 10:49:37;;;;;;;13.50;3.63;;;;;;;4.47;81.55;97604.16;4987379;28;20057;-48
2022/01/18 10:52:10;;;;;;;14.25;4.57;;;;;;;4.31;82.32;97586.28;4978819;28;20043;-53
2022/01/18 10:54:42;;;;;;;9.57;3.78;;;;;;;4.65;81.12;97592.28;4985099;28;20456;-49
2022/01/18 10:57:12;;;;;;;8.75;4.13;;;;;;;4.83;80.68;97588.44;4991269;28;20578;-55
2022/01/18 10:59:40;;;;;;;12.02;4.43;;;;;;;4.10;80.20;97582.59;4985839;28;20133;-55
2022/01/18 11:02:15;;;;;;;9.90;3.83;;;;;;;3.74;82.39;97574.09;4979084;28;20141;-49
2022/01/18 11:04:48;;;;;;;10.10;3.72;;;;;;;4.11;80.22;97568.94;4987846;28;20074;-52
2022/01/18 11:07:18;;;;;;;13.02;3.65;;;;;;;3.58;81.47;97566.94;4982932;28;20062;-50
2022/01/18 11:09:46;;;;;;;8.23;3.90;;;;;;;4.30;83.35;97565.94;4974262;28;20390;-51
2022/01/18 11:12:14;;;;;;;13.00;3.72;;;;;;;4.41;80.71;97563.09;4990216;28;20043;-49
2022/01/18 11:14:47;;;;;;;11.82;4.32;;;;;;;4.04;77.61;97567.50;4983888;28;20483;-55
2022/01/18 11:17:23;;;;;;;8.52;4.28;;;;;;;3.56;80.79;97564.50;4977023;28;20205;-53
2022/01/18 11:19:55;;;;;;;11.00;4.13;;;;;;;3.96;79.80;97552.69;4978359;28;20055;-52
2022/01/18 11:22:24;;;;;;;8.57;4.60;;;;;;;4.22;77.93;97551.09;4982688;28;20050;-50
2022/01/18 11:24:57;;;;;;;17.08;4.82;;;;;;;3.49;82.24;97553.97;4985278;28;20058;-50
2022/01/18 11:27:28;;;;;;;9.93;3.83;;;;;;;3.48;78.34;97548.88;4992026;28;20381;-51
2022/01/18 11:29:56;;;;;;;11.07;3.50;;;;;;;3.24;79.73;97549.06;4974972;28;20137;-50
2022/01/18 11:32:28;;;;;;;16.00;4.32;;;;;;;3.11;80.10;97537.88;4989431;28;20054;-52
2022/01/18 11:35:03;;;;;;;8.30;3.20;;;;;;;3.64;78.31;97544.50;4982201;28;20103;-47
2022/01/18 11:37:58;;;;;;;10.95;4.47;;;;;;;4.25;78.10;97544.44;4990172;28;20054;-55
2022/01/18 11:40:27;;;;;;;11.25;4.53;;;;;;;4.25;78.38;97539.88;4982942;28;20054;-45
2022/01/18 11:42:57;;;;;;;12.43;4.88;;;;;;;4.43;77.82;97538.72;4990552;28;20084;-47
2022/01/18 11:45:24;;;;;;;9.70;3.70;;;;;;;3.75;75.75;97543.59;4987407;28;20042;-44
2022/01/18 11:48:17;;;;;;;10.63;3.72;;;;;;;3.47;77.75;97547.22;4981505;28;20564;-49
2022/01/18 11:50:47;;;;;;;11.65;3.25;;;;;;;3.51;77.38;97545.69;4977639;28;20042;-47
2022/01/18 11:53:42;;;;;;;8.68;3.95;;;;;;;3.61;77.72;97540.47;4990323;28;20061;-49
2022/01/18 11:56:33;;;;;;;17.98;4.32;;;;;;;3.49;77.04;97542.44;4992759;28;20563;-47
2022/01/18 11:59:27;;;;;;;8.95;3.35;;;;;;;2.98;75.43;97536.34;4991504;28;20046;-47
2022/01/18 12:01:56;;;;;;;10.45;3.30;;;;;;;2.94;76.79;97535.22;4982699;28;20413;-46
2022/01/18 12:04:59;;;;;;;8.93;3.00;;;;;;;3.35;75.31;97543.84;4981787;28;20053;-51
2022/01/18 12:07:36;;;;;;;6.50;2.97;;;;;;;4.10;75.08;97537.84;4985240;28;20096;-50
2022/01/18 12:10:27;;;;;;;9.70;3.65;;;;;;;3.21;75.61;97533.50;4981763;28;20058;-50
2022/01/18 12:12:56;;;;;;;11.20;4.10;;;;;;;3.85;76.84;97533.00;4977553;28;20492;-49
2022/01/18 12:15:23;;;;;;;9.95;4.13;;;;;;;4.36;75.23;97532.78;4991161;28;20046;-49
2022/01/18 12:18:03;;;;;;;9.85;3.78;;;;;;;4.61;74.62;97529.50;4991120;28;20042;-53
2022/01/18 12:20:37;;;;;;;10.00;3.65;;;;;;;4.13;74.55;97528.50;4985550;28;20126;-55
2022/01/18 12:23:17;;;;;;;11.57;4.10;;;;;;;3.86;74.29;97521.22;4983658;28;20070;-49
2022/01/18 12:34:29;;;;;;;10.85;3.25;;;;;;;3.74;74.39;97515.22;4986255;28;20097;-52
2022/01/18 12:37:05;;;;;;;9.05;3.15;;;;;;;4.20;74.73;97516.53;4980261;28;20044;-50
2022/01/18 12:39:53;;;;;;;14.60;4.60;;;;;;;4.51;73.72;97507.97;4986759;28;20070;-54
2022/01/18 12:45:22;;;;;;;10.50;3.50;;;;;;;4.60;71.79;97517.16;4991015;28;20475;-54
2022/01/18 12:47:59;;;;;;;13.10;3.67;;;;;;;4.93;72.13;97506.16;4985764;28;20126;-53
2022/01/18 12:50:33;;;;;;;16.55;3.55;;;;;;;4.77;72.93;97500.94;4989864;28;20057;-54
2022/01/18 12:53:02;;;;;;;10.75;3.80;;;;;;;4.40;71.27;97501.72;4977690;28;20053;-51
2022/01/18 12:55:31;;;;;;;7.22;3.40;;;;;;;3.68;73.05;97506.31;4984770;28;20051;-49
2022/01/18 12:58:01;;;;;;;10.15;3.85;;;;;;;3.60;73.31;97508.59;4983087;28;20053;-46
2022/01/18 13:00:29;;;;;;;9.18;3.72;;;;;;;4.66;72.04;97511.59;4987100;28;20129;-52